createdAt,value
2019-01-31T00:02:08.580Z,32.70
2019-01-31T00:04:48.058Z,34.43
2019-01-31T00:07:28.009Z,31.17
2019-01-31T00:10:07.156Z,33.40
2019-01-31T00:12:47.136Z,37.30
2019-01-31T00:15:26.959Z,33.23
2019-01-31T00:18:06.892Z,34.67
2019-01-31T00:20:47.035Z,52.37
2019-01-31T00:23:26.924Z,35.47
2019-01-31T00:26:06.893Z,38.07
2019-01-31T00:28:46.888Z,38.27
2019-01-31T00:31:26.982Z,39.73
2019-01-31T00:34:06.977Z,37.27
2019-01-31T00:36:46.244Z,44.20
2019-01-31T00:39:26.462Z,45.77
2019-01-31T00:42:06.438Z,46.23
2019-01-31T00:44:46.520Z,42.20
2019-01-31T00:47:30.072Z,46.40
2019-01-31T00:50:09.566Z,44.80
2019-01-31T00:52:49.559Z,43.40
2019-01-31T00:55:29.587Z,39.37
2019-01-31T00:58:09.644Z,41.07
2019-01-31T01:00:49.648Z,39.40
2019-01-31T01:03:28.807Z,44.07
2019-01-31T01:06:07.931Z,43.77
2019-01-31T01:08:48.010Z,45.60
2019-01-31T01:11:27.127Z,44.77
2019-01-31T01:14:06.236Z,41.60
2019-01-31T01:16:45.486Z,40.30
2019-01-31T01:19:24.684Z,46.00
2019-01-31T01:22:03.865Z,38.87
2019-01-31T01:24:43.894Z,42.90
2019-01-31T01:27:23.014Z,37.20
2019-01-31T01:30:02.246Z,36.90
2019-01-31T01:32:41.493Z,37.23
2019-01-31T01:35:20.670Z,45.73
2019-01-31T01:38:00.715Z,45.00
2019-01-31T01:40:39.934Z,38.73
2019-01-31T01:43:20.043Z,43.13
2019-01-31T01:45:59.164Z,40.27
2019-01-31T01:48:38.387Z,39.03
2019-01-31T01:51:18.433Z,34.53
2019-01-31T01:53:58.357Z,39.17
2019-01-31T01:56:37.550Z,37.17
2019-01-31T01:59:16.922Z,38.07
2019-01-31T02:01:56.025Z,41.53
2019-01-31T02:04:36.079Z,42.13
2019-01-31T02:07:15.984Z,37.17
2019-01-31T02:09:59.480Z,42.57
2019-01-31T02:12:39.069Z,33.10
2019-01-31T02:15:18.240Z,36.30
2019-01-31T02:17:58.254Z,40.10
2019-01-31T02:20:38.296Z,36.87
2019-01-31T02:23:17.385Z,32.33
2019-01-31T02:25:56.495Z,37.40
2019-01-31T02:28:36.424Z,36.37
2019-01-31T02:31:15.638Z,34.47
2019-01-31T02:33:55.676Z,36.33
2019-01-31T02:36:35.500Z,31.33
2019-01-31T02:39:15.477Z,33.53
2019-01-31T02:41:55.620Z,33.03
2019-01-31T02:44:35.499Z,31.53
2019-01-31T02:47:14.710Z,30.30
2019-01-31T02:49:54.751Z,28.67
2019-01-31T02:52:34.813Z,32.23
2019-01-31T02:55:14.905Z,27.90
2019-01-31T02:57:54.841Z,30.70
2019-01-31T03:00:34.044Z,27.73
2019-01-31T03:03:13.143Z,31.23
2019-01-31T03:05:52.315Z,25.73
2019-01-31T03:08:32.308Z,26.97
2019-01-31T03:11:12.262Z,28.30
2019-01-31T03:13:51.479Z,28.20
2019-01-31T03:16:31.573Z,34.93
2019-01-31T03:19:10.777Z,26.40
2019-01-31T03:21:50.802Z,26.20
2019-01-31T03:24:30.888Z,25.33
2019-01-31T03:27:09.939Z,24.40
2019-01-31T03:29:49.067Z,24.00
2019-01-31T03:32:28.993Z,32.20
2019-01-31T03:35:08.984Z,24.90
2019-01-31T03:37:48.860Z,23.13
2019-01-31T03:40:27.944Z,20.57
2019-01-31T03:43:07.849Z,25.80
2019-01-31T03:45:47.836Z,21.37
2019-01-31T03:48:27.804Z,20.27
2019-01-31T03:51:06.941Z,22.67
2019-01-31T03:53:46.256Z,21.13
2019-01-31T03:56:26.303Z,17.70
2019-01-31T03:59:05.365Z,17.17
2019-01-31T04:01:45.409Z,24.27
2019-01-31T04:04:24.576Z,20.00
2019-01-31T04:07:03.846Z,14.63
2019-01-31T04:09:44.013Z,22.43
2019-01-31T04:12:23.199Z,16.33
2019-01-31T04:15:03.120Z,19.87
2019-01-31T04:17:43.035Z,19.40
2019-01-31T04:20:22.202Z,14.90
2019-01-31T04:23:01.365Z,16.50
2019-01-31T04:25:40.871Z,11.40
2019-01-31T04:28:19.989Z,12.17
2019-01-31T04:31:00.038Z,16.30
2019-01-31T04:33:39.917Z,12.63
2019-01-31T04:36:18.908Z,14.20
2019-01-31T04:38:58.890Z,11.60
2019-01-31T04:41:38.204Z,12.20
2019-01-31T04:44:17.312Z,16.93
2019-01-31T04:46:56.545Z,13.87
2019-01-31T04:49:36.533Z,15.80
2019-01-31T04:52:16.582Z,16.40
2019-01-31T04:54:56.698Z,15.80
2019-01-31T04:57:36.843Z,12.73
2019-01-31T05:00:17.001Z,12.60
2019-01-31T05:02:56.949Z,11.73
2019-01-31T05:05:36.108Z,12.10
2019-01-31T05:08:15.247Z,13.57
2019-01-31T05:10:55.234Z,15.50
2019-01-31T05:13:35.058Z,13.20
2019-01-31T05:16:15.069Z,9.97
2019-01-31T05:18:54.387Z,9.87
2019-01-31T05:21:34.441Z,14.63
2019-01-31T05:24:13.528Z,13.60
2019-01-31T05:26:53.544Z,14.23
2019-01-31T05:29:32.753Z,15.07
2019-01-31T05:32:11.909Z,13.63
2019-01-31T05:34:51.053Z,13.83
2019-01-31T05:37:30.996Z,13.97
2019-01-31T05:40:10.953Z,12.40
2019-01-31T05:42:50.197Z,15.50
2019-01-31T05:45:30.251Z,16.83
2019-01-31T05:48:10.197Z,15.97
2019-01-31T05:50:50.078Z,14.50
2019-01-31T05:53:30.083Z,12.87
2019-01-31T05:56:10.090Z,13.98
2019-01-31T05:58:50.054Z,14.40
2019-01-31T06:01:29.292Z,14.87
2019-01-31T06:04:08.456Z,15.03
2019-01-31T06:06:48.501Z,18.00
2019-01-31T06:09:27.685Z,18.90
2019-01-31T06:12:07.532Z,14.70
2019-01-31T06:14:47.528Z,14.97
2019-01-31T06:17:26.923Z,17.00
2019-01-31T06:20:05.967Z,12.80
2019-01-31T06:22:45.106Z,22.50
2019-01-31T06:25:25.161Z,17.33
2019-01-31T06:28:05.181Z,21.03
2019-01-31T06:30:45.513Z,20.87
2019-01-31T06:33:28.356Z,22.30
2019-01-31T06:36:07.400Z,21.30
2019-01-31T06:38:46.456Z,18.90
2019-01-31T06:41:25.637Z,21.90
2019-01-31T06:44:05.536Z,22.83
2019-01-31T06:46:44.629Z,15.63
2019-01-31T06:52:05.660Z,17.07
2019-01-31T06:54:44.768Z,14.60
2019-01-31T06:57:23.843Z,14.40
2019-01-31T07:00:22.755Z,13.27
2019-01-31T07:03:02.056Z,16.53
2019-01-31T07:05:42.215Z,15.20
2019-01-31T07:08:22.328Z,17.83
2019-01-31T07:11:01.613Z,18.47
2019-01-31T07:13:41.642Z,18.23
2019-01-31T07:16:20.876Z,18.50
2019-01-31T07:19:00.775Z,17.80
2019-01-31T07:21:39.933Z,24.37
2019-01-31T07:24:19.040Z,15.53
2019-01-31T07:26:59.063Z,17.83
2019-01-31T07:29:38.155Z,23.77
2019-01-31T07:32:18.132Z,18.60
2019-01-31T07:34:58.233Z,14.90
2019-01-31T07:37:38.242Z,19.00
2019-01-31T07:40:18.339Z,13.67
2019-01-31T07:42:58.229Z,17.47
2019-01-31T07:45:38.305Z,17.40
2019-01-31T07:48:17.460Z,16.60
2019-01-31T07:50:56.918Z,15.20
2019-01-31T07:53:36.912Z,14.87
2019-01-31T07:56:16.951Z,14.80
2019-01-31T07:58:56.132Z,12.70
2019-01-31T08:01:35.642Z,15.83
2019-01-31T08:04:15.243Z,9.17
2019-01-31T08:06:54.333Z,10.10
2019-01-31T08:09:33.461Z,9.03
2019-01-31T08:12:13.529Z,9.80
2019-01-31T08:14:53.624Z,13.40
2019-01-31T08:17:33.680Z,7.90
2019-01-31T08:20:12.816Z,10.00
2019-01-31T08:22:52.936Z,14.00
2019-01-31T08:29:15.205Z,7.00
2019-01-31T08:31:54.335Z,10.77
2019-01-31T08:34:34.497Z,6.27
2019-01-31T08:40:19.799Z,8.50
2019-01-31T08:42:59.067Z,16.17
2019-01-31T08:45:39.156Z,10.93
2019-01-31T08:48:19.255Z,8.20
2019-01-31T08:51:03.138Z,10.70
2019-01-31T08:53:42.421Z,10.93
2019-01-31T08:56:22.421Z,10.87
2019-01-31T08:59:01.619Z,11.00
2019-01-31T09:01:40.874Z,10.03
2019-01-31T09:04:20.040Z,8.57
2019-01-31T09:06:59.309Z,8.70
2019-01-31T09:09:39.269Z,8.60
2019-01-31T09:12:19.332Z,9.73
2019-01-31T09:14:59.320Z,11.23
2019-01-31T09:17:39.320Z,10.30
2019-01-31T09:20:18.546Z,8.60
2019-01-31T09:22:58.451Z,8.83
2019-01-31T09:25:38.403Z,14.03
2019-01-31T09:28:18.446Z,13.50
2019-01-31T09:31:18.450Z,15.20
2019-01-31T09:33:57.579Z,13.53
2019-01-31T09:36:36.887Z,14.70
2019-01-31T09:39:16.209Z,19.03
2019-01-31T09:41:56.220Z,12.67
2019-01-31T09:44:35.369Z,13.40
2019-01-31T09:47:15.416Z,12.40
2019-01-31T09:49:55.541Z,14.50
2019-01-31T09:52:35.768Z,16.53
2019-01-31T09:55:14.882Z,17.77
2019-01-31T09:57:54.872Z,13.83
2019-01-31T10:00:34.166Z,17.23
2019-01-31T10:03:13.454Z,20.83
2019-01-31T10:05:52.565Z,14.10
2019-01-31T10:08:32.592Z,18.30
2019-01-31T10:11:11.683Z,18.33
2019-01-31T10:13:51.840Z,13.30
2019-01-31T10:16:31.815Z,16.47
2019-01-31T10:19:12.008Z,14.50
2019-01-31T10:21:52.108Z,17.00
2019-01-31T10:24:32.244Z,13.97
2019-01-31T10:27:12.352Z,14.07
2019-01-31T10:29:52.991Z,12.50
2019-01-31T10:32:32.660Z,17.13
2019-01-31T10:35:11.827Z,13.30
2019-01-31T10:37:51.818Z,12.80
2019-01-31T10:40:30.875Z,11.23
2019-01-31T10:43:10.840Z,16.97
2019-01-31T10:45:50.873Z,13.27
2019-01-31T10:48:33.920Z,12.27
2019-01-31T10:51:13.173Z,16.67
2019-01-31T10:53:53.105Z,18.00
2019-01-31T10:56:32.267Z,13.70
2019-01-31T10:59:12.412Z,15.07
2019-01-31T11:01:52.012Z,14.60
2019-01-31T11:04:31.308Z,12.40
2019-01-31T11:07:10.416Z,13.40
2019-01-31T11:13:00.888Z,20.60
2019-01-31T11:15:40.756Z,18.30
2019-01-31T11:21:02.389Z,13.67
2019-01-31T11:23:42.299Z,18.33
2019-01-31T11:26:22.472Z,17.87
2019-01-31T11:29:01.652Z,15.90
2019-01-31T11:31:40.729Z,17.07
2019-01-31T11:34:20.896Z,15.63
2019-01-31T11:37:00.153Z,16.00
2019-01-31T11:39:39.978Z,17.87
2019-01-31T11:42:19.073Z,17.20
2019-01-31T11:44:58.285Z,18.63
2019-01-31T11:47:37.455Z,17.47
2019-01-31T11:50:16.632Z,18.30
2019-01-31T11:55:38.371Z,17.87
2019-01-31T11:58:17.680Z,21.23
2019-01-31T12:00:57.593Z,16.87
2019-01-31T12:03:37.630Z,15.30
2019-01-31T12:06:16.777Z,15.60
2019-01-31T12:08:55.916Z,20.47
2019-01-31T12:11:35.952Z,16.93
2019-01-31T12:14:15.173Z,16.70
2019-01-31T12:16:54.381Z,17.40
2019-01-31T12:19:34.426Z,19.80
2019-01-31T12:22:13.708Z,18.83
2019-01-31T12:24:53.800Z,17.63
2019-01-31T12:27:33.133Z,16.60
2019-01-31T12:30:32.793Z,18.57
2019-01-31T12:33:12.371Z,19.20
2019-01-31T12:35:52.237Z,14.70
2019-01-31T12:38:36.772Z,16.27
2019-01-31T12:43:59.306Z,14.60
2019-01-31T12:46:39.169Z,15.50
2019-01-31T12:49:18.249Z,14.50
2019-01-31T12:51:58.301Z,13.17
2019-01-31T12:54:37.573Z,12.83
2019-01-31T12:57:17.532Z,12.97
2019-01-31T12:59:56.576Z,11.60
2019-01-31T13:02:35.863Z,11.70
2019-01-31T13:05:15.970Z,10.17
2019-01-31T13:07:55.736Z,13.00
2019-01-31T13:10:34.895Z,11.37
2019-01-31T13:16:40.282Z,11.17
2019-01-31T13:19:19.626Z,11.10
2019-01-31T13:21:59.607Z,11.53
2019-01-31T13:24:39.740Z,14.60
2019-01-31T13:27:19.734Z,15.70
2019-01-31T13:30:03.856Z,12.30
2019-01-31T13:32:43.109Z,16.23
2019-01-31T13:35:43.183Z,16.53
2019-01-31T13:38:22.442Z,18.93
2019-01-31T13:41:02.508Z,14.97
2019-01-31T13:43:42.494Z,13.20
2019-01-31T13:46:22.541Z,15.33
2019-01-31T13:49:02.464Z,19.37
2019-01-31T13:51:42.530Z,19.03
2019-01-31T13:54:22.539Z,19.30
2019-01-31T13:57:01.814Z,20.47
2019-01-31T13:59:41.610Z,17.27
2019-01-31T14:02:21.655Z,17.43
2019-01-31T14:11:59.213Z,20.10
2019-01-31T14:14:39.265Z,15.23
2019-01-31T14:17:18.532Z,16.17
2019-01-31T14:19:58.530Z,20.47
2019-01-31T14:22:43.077Z,19.07
2019-01-31T14:25:19.626Z,19.40
2019-01-31T14:27:58.873Z,19.53
2019-01-31T14:30:38.873Z,21.23
2019-01-31T14:33:20.845Z,19.83
2019-01-31T14:36:00.121Z,24.17
2019-01-31T14:38:39.296Z,22.00
2019-01-31T14:41:19.368Z,27.60
2019-01-31T14:43:59.205Z,21.70
2019-01-31T14:46:38.377Z,20.80
2019-01-31T14:49:19.371Z,22.90
2019-01-31T14:51:59.492Z,22.33
2019-01-31T14:54:39.510Z,20.00
2019-01-31T14:57:19.584Z,23.20
2019-01-31T14:59:59.554Z,24.33
2019-01-31T15:02:38.787Z,26.73
2019-01-31T15:05:17.842Z,24.53
2019-01-31T15:07:56.999Z,20.30
2019-01-31T15:10:37.022Z,22.17
2019-01-31T15:13:17.044Z,20.53
2019-01-31T15:15:56.220Z,26.10
2019-01-31T15:18:36.293Z,25.30
2019-01-31T15:21:16.315Z,30.10
2019-01-31T15:23:59.359Z,23.47
2019-01-31T15:26:59.613Z,28.57
2019-01-31T15:29:42.796Z,27.80
2019-01-31T15:32:22.177Z,23.33
2019-01-31T15:35:01.288Z,23.50
2019-01-31T15:41:19.898Z,31.30
2019-01-31T15:44:03.019Z,28.77
2019-01-31T15:46:42.189Z,31.43
2019-01-31T15:49:22.276Z,27.20
2019-01-31T15:52:02.272Z,26.50
2019-01-31T15:57:24.189Z,27.93
2019-01-31T16:00:05.449Z,34.10
2019-01-31T16:02:45.349Z,33.50
2019-01-31T16:05:45.082Z,27.27
2019-01-31T16:08:24.915Z,28.47
2019-01-31T16:14:23.202Z,34.37
2019-01-31T16:17:03.276Z,31.53
2019-01-31T16:19:42.573Z,43.53
2019-01-31T16:22:21.727Z,34.90
2019-01-31T16:25:01.066Z,27.60
2019-01-31T16:27:41.206Z,28.30
2019-01-31T16:33:37.614Z,29.90
2019-01-31T16:36:16.824Z,28.63
2019-01-31T16:38:56.663Z,29.50
2019-01-31T16:41:35.828Z,31.30
2019-01-31T16:47:24.096Z,33.73
2019-01-31T16:50:04.087Z,28.77
2019-01-31T16:52:44.038Z,26.10
2019-01-31T16:55:24.083Z,30.03
2019-01-31T16:58:03.398Z,26.17
2019-01-31T17:00:43.337Z,33.40
2019-01-31T17:03:23.357Z,27.13
2019-01-31T17:06:22.459Z,30.37
2019-01-31T17:09:01.899Z,25.90
2019-01-31T17:11:41.845Z,31.20
2019-01-31T17:14:21.045Z,28.53
2019-01-31T17:17:00.288Z,28.37
2019-01-31T17:19:40.265Z,28.70
2019-01-31T17:22:20.177Z,33.27
2019-01-31T17:24:59.377Z,30.03
2019-01-31T17:27:43.324Z,29.10
2019-01-31T17:30:23.417Z,33.10
2019-01-31T17:33:03.570Z,26.40
2019-01-31T17:35:43.680Z,25.40
2019-01-31T17:38:23.454Z,27.90
2019-01-31T17:41:03.383Z,26.00
2019-01-31T17:43:42.708Z,26.57
2019-01-31T17:46:21.977Z,28.20
2019-01-31T17:49:02.198Z,31.93
2019-01-31T17:51:42.172Z,27.50
2019-01-31T17:54:22.220Z,27.27
2019-01-31T17:57:02.331Z,36.60
2019-01-31T17:59:42.478Z,44.30
2019-01-31T18:02:22.426Z,33.13
2019-01-31T18:05:01.639Z,32.90
2019-01-31T18:07:41.244Z,30.70
2019-01-31T18:10:21.232Z,27.10
2019-01-31T18:13:01.199Z,33.80
2019-01-31T18:15:42.564Z,30.60
2019-01-31T18:18:22.199Z,28.03
2019-01-31T18:21:02.368Z,29.00
2019-01-31T18:23:42.364Z,29.80
2019-01-31T18:26:21.797Z,29.70
2019-01-31T18:29:01.664Z,29.50
2019-01-31T18:31:40.918Z,26.17
2019-01-31T18:34:19.989Z,26.80
2019-01-31T18:46:54.178Z,29.87
2019-01-31T18:49:33.641Z,30.53
2019-01-31T18:55:50.615Z,27.13
2019-01-31T18:58:30.658Z,33.33
2019-01-31T19:01:10.544Z,26.57
2019-01-31T19:03:50.542Z,20.47
2019-01-31T19:06:34.494Z,21.53
2019-01-31T19:09:14.690Z,17.20
2019-01-31T19:12:14.497Z,20.67
2019-01-31T19:14:55.593Z,21.27
2019-01-31T19:17:34.937Z,21.07
2019-01-31T19:20:14.165Z,19.90
2019-01-31T19:22:54.089Z,15.50
2019-01-31T19:25:34.021Z,17.73
2019-01-31T19:28:13.460Z,18.40
2019-01-31T19:30:53.211Z,17.40
2019-01-31T19:36:41.770Z,19.63
2019-01-31T19:39:21.018Z,22.07
2019-01-31T19:42:00.983Z,18.77
2019-01-31T19:44:41.955Z,17.43
2019-01-31T19:47:21.277Z,22.30
2019-01-31T19:50:00.500Z,20.93
2019-01-31T19:52:40.667Z,16.33
2019-01-31T19:55:20.721Z,20.20
2019-01-31T19:57:59.836Z,16.00
2019-01-31T20:03:40.960Z,17.20
2019-01-31T20:06:20.415Z,17.17
2019-01-31T20:08:59.646Z,18.30
2019-01-31T20:11:39.514Z,19.60
2019-01-31T20:14:19.437Z,20.20
2019-01-31T20:16:59.612Z,20.13
2019-01-31T20:19:39.700Z,19.43
2019-01-31T20:25:01.472Z,17.17
2019-01-31T20:27:40.594Z,13.87
2019-01-31T20:30:20.698Z,18.30
2019-01-31T20:33:00.648Z,17.97
2019-01-31T20:35:39.875Z,17.33
2019-01-31T20:38:19.804Z,20.83
2019-01-31T20:40:58.978Z,22.10
2019-01-31T20:43:38.283Z,20.33
2019-01-31T20:46:18.420Z,21.20
2019-01-31T20:48:58.408Z,25.10
2019-01-31T20:51:38.686Z,31.60
2019-01-31T20:54:18.680Z,26.53
2019-01-31T20:57:02.578Z,26.80
2019-01-31T20:59:41.891Z,46.13
2019-01-31T21:02:41.768Z,43.97
2019-01-31T21:05:21.353Z,28.10
2019-01-31T21:08:01.478Z,25.13
2019-01-31T21:10:40.641Z,17.00
2019-01-31T21:13:19.866Z,23.90
2019-01-31T21:15:59.884Z,20.30
2019-01-31T21:18:39.855Z,18.10
2019-01-31T21:21:19.098Z,20.13
2019-01-31T21:23:59.296Z,19.00
2019-01-31T21:26:39.301Z,15.77
2019-01-31T21:29:19.240Z,16.27
2019-01-31T21:31:58.371Z,15.67
2019-01-31T21:34:37.570Z,16.20
2019-01-31T21:37:16.972Z,17.90
2019-01-31T21:39:56.965Z,15.30
2019-01-31T21:42:36.940Z,16.63
2019-01-31T21:45:16.033Z,14.33
2019-01-31T21:47:55.157Z,15.97
2019-01-31T21:50:35.217Z,15.63
2019-01-31T21:53:15.269Z,15.50
2019-01-31T21:59:03.029Z,21.83
2019-01-31T22:01:42.928Z,17.00
2019-01-31T22:04:22.128Z,14.83
2019-01-31T22:09:44.466Z,20.43
2019-01-31T22:12:24.349Z,22.43
2019-01-31T22:15:03.467Z,20.70
2019-01-31T22:17:42.699Z,20.33
2019-01-31T22:20:22.460Z,20.30
2019-01-31T22:23:02.428Z,14.23
2019-01-31T22:28:50.531Z,23.37
2019-01-31T22:31:29.664Z,23.73
2019-01-31T22:34:08.809Z,20.10
2019-01-31T22:36:48.039Z,18.47
2019-01-31T22:39:28.273Z,16.77
2019-01-31T22:42:08.393Z,15.70
2019-01-31T22:44:47.447Z,19.20
2019-01-31T22:47:27.366Z,19.40
2019-01-31T22:50:06.660Z,19.53
2019-01-31T22:52:46.637Z,19.60
2019-01-31T22:55:26.765Z,17.57
2019-01-31T22:58:10.408Z,19.90
2019-01-31T23:04:29.441Z,17.83
2019-01-31T23:07:08.610Z,19.63
2019-01-31T23:09:48.484Z,20.47
2019-01-31T23:12:28.501Z,18.43
2019-01-31T23:15:07.739Z,16.70
2019-01-31T23:17:47.717Z,17.97
2019-01-31T23:20:26.791Z,20.53
2019-01-31T23:23:05.990Z,17.23
2019-01-31T23:25:49.916Z,19.93
2019-01-31T23:28:29.036Z,20.83
2019-01-31T23:31:08.108Z,15.47
2019-01-31T23:33:47.319Z,17.33
2019-01-31T23:36:27.361Z,17.80
2019-01-31T23:39:06.507Z,18.17
2019-01-31T23:41:45.679Z,21.37
2019-01-31T23:44:25.620Z,20.53
2019-01-31T23:47:04.721Z,22.27
2019-01-31T23:49:44.794Z,19.23
2019-01-31T23:52:24.886Z,19.23
2019-01-31T23:55:04.919Z,21.07
2019-01-31T23:57:44.988Z,18.40
